sensor_id;sensor_type;location;lat;lon;timestamp;P1;durP1;ratioP1;P2;durP2;ratioP2
16254;SDS011;8235;52.198;9.904;2024-03-06T00:02:00;20.20;;;11.17;;
16254;SDS011;8235;52.198;9.904;2024-03-06T00:04:27;16.30;;;11.30;;
16254;SDS011;8235;52.198;9.904;2024-03-06T00:06:55;14.80;;;11.27;;
16254;SDS011;8235;52.198;9.904;2024-03-06T00:09:22;15.10;;;11.23;;
16254;SDS011;8235;52.198;9.904;2024-03-06T00:11:50;20.40;;;12.17;;
16254;SDS011;8235;52.198;9.904;2024-03-06T00:14:17;19.80;;;11.93;;
16254;SDS011;8235;52.198;9.904;2024-03-06T00:16:45;16.43;;;11.30;;
16254;SDS011;8235;52.198;9.904;2024-03-06T00:19:11;14.90;;;11.40;;
16254;SDS011;8235;52.198;9.904;2024-03-06T00:21:38;16.43;;;11.73;;
16254;SDS011;8235;52.198;9.904;2024-03-06T00:24:05;17.47;;;12.27;;
16254;SDS011;8235;52.198;9.904;2024-03-06T00:26:32;18.57;;;12.87;;
16254;SDS011;8235;52.198;9.904;2024-03-06T00:28:59;21.73;;;12.13;;
16254;SDS011;8235;52.198;9.904;2024-03-06T00:31:25;17.43;;;13.10;;
16254;SDS011;8235;52.198;9.904;2024-03-06T00:33:53;22.10;;;13.53;;
16254;SDS011;8235;52.198;9.904;2024-03-06T00:36:20;22.93;;;14.43;;
16254;SDS011;8235;52.198;9.904;2024-03-06T00:38:47;24.40;;;14.50;;
16254;SDS011;8235;52.198;9.904;2024-03-06T00:41:14;20.57;;;14.13;;
16254;SDS011;8235;52.198;9.904;2024-03-06T00:43:40;23.73;;;15.40;;
16254;SDS011;8235;52.198;9.904;2024-03-06T00:46:07;22.47;;;14.70;;
16254;SDS011;8235;52.198;9.904;2024-03-06T00:48:33;22.27;;;14.67;;
16254;SDS011;8235;52.198;9.904;2024-03-06T00:51:01;22.73;;;15.03;;
16254;SDS011;8235;52.198;9.904;2024-03-06T00:53:27;20.70;;;13.63;;
16254;SDS011;8235;52.198;9.904;2024-03-06T00:55:54;21.07;;;12.77;;
16254;SDS011;8235;52.198;9.904;2024-03-06T00:58:20;27.37;;;16.20;;
16254;SDS011;8235;52.198;9.904;2024-03-06T01:00:47;24.43;;;14.03;;
16254;SDS011;8235;52.198;9.904;2024-03-06T01:03:13;22.50;;;14.50;;
16254;SDS011;8235;52.198;9.904;2024-03-06T01:05:41;22.03;;;14.00;;
16254;SDS011;8235;52.198;9.904;2024-03-06T01:08:08;22.43;;;14.53;;
16254;SDS011;8235;52.198;9.904;2024-03-06T01:10:35;19.37;;;13.70;;
16254;SDS011;8235;52.198;9.904;2024-03-06T01:13:01;25.47;;;14.67;;
16254;SDS011;8235;52.198;9.904;2024-03-06T01:15:28;23.87;;;15.20;;
16254;SDS011;8235;52.198;9.904;2024-03-06T01:17:54;22.77;;;14.83;;
16254;SDS011;8235;52.198;9.904;2024-03-06T01:20:22;20.10;;;13.13;;
16254;SDS011;8235;52.198;9.904;2024-03-06T01:22:49;19.97;;;14.50;;
16254;SDS011;8235;52.198;9.904;2024-03-06T01:25:17;21.60;;;14.60;;
16254;SDS011;8235;52.198;9.904;2024-03-06T01:27:44;24.80;;;15.07;;
16254;SDS011;8235;52.198;9.904;2024-03-06T01:30:10;21.33;;;14.40;;
16254;SDS011;8235;52.198;9.904;2024-03-06T01:32:37;22.67;;;14.43;;
16254;SDS011;8235;52.198;9.904;2024-03-06T01:35:04;23.40;;;15.00;;
16254;SDS011;8235;52.198;9.904;2024-03-06T01:37:33;21.93;;;15.00;;
16254;SDS011;8235;52.198;9.904;2024-03-06T01:40:00;22.67;;;15.33;;
16254;SDS011;8235;52.198;9.904;2024-03-06T01:42:30;21.23;;;14.70;;
16254;SDS011;8235;52.198;9.904;2024-03-06T01:44:57;25.53;;;15.20;;
16254;SDS011;8235;52.198;9.904;2024-03-06T01:47:24;21.67;;;14.17;;
16254;SDS011;8235;52.198;9.904;2024-03-06T01:49:50;22.47;;;14.37;;
16254;SDS011;8235;52.198;9.904;2024-03-06T01:52:17;23.87;;;14.00;;
16254;SDS011;8235;52.198;9.904;2024-03-06T01:54:47;23.17;;;14.90;;
16254;SDS011;8235;52.198;9.904;2024-03-06T01:57:15;21.70;;;14.57;;
16254;SDS011;8235;52.198;9.904;2024-03-06T01:59:45;21.67;;;14.57;;
16254;SDS011;8235;52.198;9.904;2024-03-06T02:02:12;25.37;;;14.43;;
16254;SDS011;8235;52.198;9.904;2024-03-06T02:04:39;22.23;;;13.73;;
16254;SDS011;8235;52.198;9.904;2024-03-06T02:07:05;24.80;;;14.53;;
16254;SDS011;8235;52.198;9.904;2024-03-06T02:09:35;25.57;;;14.07;;
16254;SDS011;8235;52.198;9.904;2024-03-06T02:12:02;23.33;;;14.50;;
16254;SDS011;8235;52.198;9.904;2024-03-06T02:14:29;19.90;;;13.83;;
16254;SDS011;8235;52.198;9.904;2024-03-06T02:16:57;23.03;;;14.97;;
16254;SDS011;8235;52.198;9.904;2024-03-06T02:19:23;22.97;;;13.40;;
16254;SDS011;8235;52.198;9.904;2024-03-06T02:21:53;24.27;;;14.00;;
16254;SDS011;8235;52.198;9.904;2024-03-06T02:24:19;21.93;;;14.13;;
16254;SDS011;8235;52.198;9.904;2024-03-06T02:26:46;22.87;;;14.67;;
16254;SDS011;8235;52.198;9.904;2024-03-06T02:29:12;23.57;;;14.13;;
16254;SDS011;8235;52.198;9.904;2024-03-06T02:31:40;22.03;;;14.63;;
16254;SDS011;8235;52.198;9.904;2024-03-06T02:34:07;20.37;;;14.93;;
16254;SDS011;8235;52.198;9.904;2024-03-06T02:36:33;25.77;;;15.57;;
16254;SDS011;8235;52.198;9.904;2024-03-06T02:39:02;22.13;;;14.27;;
16254;SDS011;8235;52.198;9.904;2024-03-06T02:41:33;25.43;;;14.63;;
16254;SDS011;8235;52.198;9.904;2024-03-06T02:44:00;24.47;;;15.13;;
16254;SDS011;8235;52.198;9.904;2024-03-06T02:46:27;22.13;;;14.10;;
16254;SDS011;8235;52.198;9.904;2024-03-06T02:48:54;23.77;;;14.00;;
16254;SDS011;8235;52.198;9.904;2024-03-06T02:51:20;23.40;;;14.47;;
16254;SDS011;8235;52.198;9.904;2024-03-06T02:53:47;20.73;;;14.17;;
16254;SDS011;8235;52.198;9.904;2024-03-06T02:56:17;24.30;;;14.77;;
16254;SDS011;8235;52.198;9.904;2024-03-06T02:58:43;21.03;;;13.87;;
16254;SDS011;8235;52.198;9.904;2024-03-06T03:01:10;21.80;;;13.93;;
16254;SDS011;8235;52.198;9.904;2024-03-06T03:03:38;22.17;;;14.23;;
16254;SDS011;8235;52.198;9.904;2024-03-06T03:06:06;20.57;;;12.80;;
16254;SDS011;8235;52.198;9.904;2024-03-06T03:08:34;23.83;;;14.80;;
16254;SDS011;8235;52.198;9.904;2024-03-06T03:11:01;22.43;;;13.87;;
16254;SDS011;8235;52.198;9.904;2024-03-06T03:13:29;18.93;;;13.97;;
16254;SDS011;8235;52.198;9.904;2024-03-06T03:15:56;24.00;;;14.47;;
16254;SDS011;8235;52.198;9.904;2024-03-06T03:18:23;19.57;;;13.27;;
16254;SDS011;8235;52.198;9.904;2024-03-06T03:20:49;22.07;;;14.77;;
16254;SDS011;8235;52.198;9.904;2024-03-06T03:23:16;24.27;;;14.17;;
16254;SDS011;8235;52.198;9.904;2024-03-06T03:25:47;23.33;;;15.50;;
16254;SDS011;8235;52.198;9.904;2024-03-06T03:28:13;27.00;;;14.13;;
16254;SDS011;8235;52.198;9.904;2024-03-06T03:30:41;23.37;;;14.90;;
16254;SDS011;8235;52.198;9.904;2024-03-06T03:33:10;26.77;;;15.17;;
16254;SDS011;8235;52.198;9.904;2024-03-06T03:35:36;22.87;;;14.40;;
16254;SDS011;8235;52.198;9.904;2024-03-06T03:38:03;21.13;;;13.70;;
16254;SDS011;8235;52.198;9.904;2024-03-06T03:40:30;22.43;;;14.43;;
16254;SDS011;8235;52.198;9.904;2024-03-06T03:42:57;24.93;;;14.77;;
16254;SDS011;8235;52.198;9.904;2024-03-06T03:45:24;23.80;;;14.63;;
16254;SDS011;8235;52.198;9.904;2024-03-06T03:47:52;21.83;;;14.33;;
16254;SDS011;8235;52.198;9.904;2024-03-06T03:50:18;19.47;;;14.07;;
16254;SDS011;8235;52.198;9.904;2024-03-06T03:52:45;23.77;;;14.30;;
16254;SDS011;8235;52.198;9.904;2024-03-06T03:55:11;22.67;;;15.00;;
16254;SDS011;8235;52.198;9.904;2024-03-06T03:57:38;24.37;;;14.53;;
16254;SDS011;8235;52.198;9.904;2024-03-06T04:00:05;21.93;;;14.90;;
16254;SDS011;8235;52.198;9.904;2024-03-06T04:02:35;23.57;;;14.57;;
16254;SDS011;8235;52.198;9.904;2024-03-06T04:05:04;24.90;;;14.77;;
16254;SDS011;8235;52.198;9.904;2024-03-06T04:07:30;23.57;;;15.20;;
16254;SDS011;8235;52.198;9.904;2024-03-06T04:09:57;24.93;;;14.87;;
16254;SDS011;8235;52.198;9.904;2024-03-06T04:12:24;22.77;;;14.53;;
16254;SDS011;8235;52.198;9.904;2024-03-06T04:14:51;21.77;;;14.90;;
16254;SDS011;8235;52.198;9.904;2024-03-06T04:17:17;23.67;;;14.63;;
16254;SDS011;8235;52.198;9.904;2024-03-06T04:19:44;22.83;;;15.37;;
16254;SDS011;8235;52.198;9.904;2024-03-06T04:22:11;21.97;;;14.37;;
16254;SDS011;8235;52.198;9.904;2024-03-06T04:24:40;21.10;;;13.73;;
16254;SDS011;8235;52.198;9.904;2024-03-06T04:27:07;19.97;;;14.53;;
16254;SDS011;8235;52.198;9.904;2024-03-06T04:29:33;21.60;;;15.20;;
16254;SDS011;8235;52.198;9.904;2024-03-06T04:32:00;21.53;;;14.77;;
16254;SDS011;8235;52.198;9.904;2024-03-06T04:34:27;21.00;;;14.00;;
16254;SDS011;8235;52.198;9.904;2024-03-06T04:36:54;22.50;;;14.50;;
16254;SDS011;8235;52.198;9.904;2024-03-06T04:39:21;25.00;;;13.77;;
16254;SDS011;8235;52.198;9.904;2024-03-06T04:41:48;27.13;;;13.73;;
16254;SDS011;8235;52.198;9.904;2024-03-06T04:44:14;21.00;;;14.30;;
16254;SDS011;8235;52.198;9.904;2024-03-06T04:46:41;18.57;;;12.63;;
16254;SDS011;8235;52.198;9.904;2024-03-06T04:49:10;23.63;;;14.67;;
16254;SDS011;8235;52.198;9.904;2024-03-06T04:51:37;23.23;;;14.17;;
16254;SDS011;8235;52.198;9.904;2024-03-06T04:54:03;22.90;;;14.20;;
16254;SDS011;8235;52.198;9.904;2024-03-06T04:56:31;25.17;;;14.13;;
16254;SDS011;8235;52.198;9.904;2024-03-06T04:58:57;24.30;;;15.43;;
16254;SDS011;8235;52.198;9.904;2024-03-06T05:01:27;21.37;;;13.50;;
16254;SDS011;8235;52.198;9.904;2024-03-06T05:03:54;22.73;;;15.00;;
16254;SDS011;8235;52.198;9.904;2024-03-06T05:06:21;24.80;;;15.23;;
16254;SDS011;8235;52.198;9.904;2024-03-06T05:08:48;21.87;;;14.03;;
16254;SDS011;8235;52.198;9.904;2024-03-06T05:11:15;22.03;;;14.77;;
16254;SDS011;8235;52.198;9.904;2024-03-06T05:13:43;22.40;;;15.10;;
16254;SDS011;8235;52.198;9.904;2024-03-06T05:16:09;23.83;;;15.33;;
16254;SDS011;8235;52.198;9.904;2024-03-06T05:18:35;21.33;;;13.83;;
16254;SDS011;8235;52.198;9.904;2024-03-06T05:21:02;21.00;;;14.67;;
16254;SDS011;8235;52.198;9.904;2024-03-06T05:23:29;20.60;;;13.90;;
16254;SDS011;8235;52.198;9.904;2024-03-06T05:25:55;20.67;;;13.27;;
16254;SDS011;8235;52.198;9.904;2024-03-06T05:28:22;20.63;;;13.87;;
16254;SDS011;8235;52.198;9.904;2024-03-06T05:30:50;19.10;;;13.77;;
16254;SDS011;8235;52.198;9.904;2024-03-06T05:33:16;21.17;;;14.13;;
16254;SDS011;8235;52.198;9.904;2024-03-06T05:35:43;21.77;;;13.97;;
16254;SDS011;8235;52.198;9.904;2024-03-06T05:38:09;21.17;;;13.57;;
16254;SDS011;8235;52.198;9.904;2024-03-06T05:40:35;21.23;;;13.63;;
16254;SDS011;8235;52.198;9.904;2024-03-06T05:43:05;21.07;;;13.37;;
16254;SDS011;8235;52.198;9.904;2024-03-06T05:45:32;20.77;;;14.30;;
16254;SDS011;8235;52.198;9.904;2024-03-06T05:48:00;22.80;;;14.07;;
16254;SDS011;8235;52.198;9.904;2024-03-06T05:50:26;25.70;;;14.07;;
16254;SDS011;8235;52.198;9.904;2024-03-06T05:52:53;21.97;;;14.77;;
16254;SDS011;8235;52.198;9.904;2024-03-06T05:55:19;21.07;;;13.70;;
16254;SDS011;8235;52.198;9.904;2024-03-06T05:57:46;22.77;;;13.67;;
16254;SDS011;8235;52.198;9.904;2024-03-06T06:00:13;22.23;;;14.57;;
16254;SDS011;8235;52.198;9.904;2024-03-06T06:02:40;25.13;;;15.03;;
16254;SDS011;8235;52.198;9.904;2024-03-06T06:05:08;23.80;;;14.60;;
16254;SDS011;8235;52.198;9.904;2024-03-06T06:07:35;23.23;;;14.43;;
16254;SDS011;8235;52.198;9.904;2024-03-06T06:10:03;21.57;;;14.47;;
16254;SDS011;8235;52.198;9.904;2024-03-06T06:12:31;21.10;;;13.77;;
16254;SDS011;8235;52.198;9.904;2024-03-06T06:14:57;21.10;;;13.63;;
16254;SDS011;8235;52.198;9.904;2024-03-06T06:17:24;22.03;;;13.63;;
16254;SDS011;8235;52.198;9.904;2024-03-06T06:19:50;22.53;;;13.50;;
16254;SDS011;8235;52.198;9.904;2024-03-06T06:22:18;21.90;;;13.73;;
16254;SDS011;8235;52.198;9.904;2024-03-06T06:24:45;22.03;;;14.03;;
16254;SDS011;8235;52.198;9.904;2024-03-06T06:27:12;23.60;;;14.73;;
16254;SDS011;8235;52.198;9.904;2024-03-06T06:29:38;24.97;;;14.23;;
16254;SDS011;8235;52.198;9.904;2024-03-06T06:32:06;24.73;;;13.80;;
16254;SDS011;8235;52.198;9.904;2024-03-06T06:34:33;22.00;;;14.07;;
16254;SDS011;8235;52.198;9.904;2024-03-06T06:37:00;21.73;;;14.07;;
16254;SDS011;8235;52.198;9.904;2024-03-06T06:39:28;24.57;;;14.17;;
16254;SDS011;8235;52.198;9.904;2024-03-06T06:41:55;22.43;;;13.70;;
16254;SDS011;8235;52.198;9.904;2024-03-06T06:44:21;21.90;;;13.40;;
16254;SDS011;8235;52.198;9.904;2024-03-06T06:46:48;24.67;;;15.37;;
16254;SDS011;8235;52.198;9.904;2024-03-06T06:49:14;19.97;;;13.83;;
16254;SDS011;8235;52.198;9.904;2024-03-06T06:51:41;21.67;;;14.07;;
16254;SDS011;8235;52.198;9.904;2024-03-06T06:54:07;22.83;;;14.70;;
16254;SDS011;8235;52.198;9.904;2024-03-06T06:56:35;22.97;;;14.37;;
16254;SDS011;8235;52.198;9.904;2024-03-06T06:59:02;22.67;;;14.43;;
16254;SDS011;8235;52.198;9.904;2024-03-06T07:01:28;20.97;;;14.43;;
16254;SDS011;8235;52.198;9.904;2024-03-06T07:03:54;19.43;;;13.57;;
16254;SDS011;8235;52.198;9.904;2024-03-06T07:06:21;22.07;;;14.57;;
16254;SDS011;8235;52.198;9.904;2024-03-06T07:08:47;26.27;;;16.17;;
16254;SDS011;8235;52.198;9.904;2024-03-06T07:11:16;23.53;;;14.57;;
16254;SDS011;8235;52.198;9.904;2024-03-06T07:13:44;22.17;;;13.70;;
16254;SDS011;8235;52.198;9.904;2024-03-06T07:16:11;22.77;;;14.00;;
16254;SDS011;8235;52.198;9.904;2024-03-06T07:18:37;23.23;;;14.20;;
16254;SDS011;8235;52.198;9.904;2024-03-06T07:21:04;21.77;;;13.83;;
16254;SDS011;8235;52.198;9.904;2024-03-06T07:23:30;22.93;;;15.13;;
16254;SDS011;8235;52.198;9.904;2024-03-06T07:25:57;21.20;;;14.13;;
16254;SDS011;8235;52.198;9.904;2024-03-06T07:28:24;24.03;;;15.27;;
16254;SDS011;8235;52.198;9.904;2024-03-06T07:30:52;24.47;;;14.00;;
16254;SDS011;8235;52.198;9.904;2024-03-06T07:33:18;24.50;;;15.27;;
16254;SDS011;8235;52.198;9.904;2024-03-06T07:35:45;21.67;;;13.87;;
16254;SDS011;8235;52.198;9.904;2024-03-06T07:38:11;24.30;;;14.87;;
16254;SDS011;8235;52.198;9.904;2024-03-06T07:40:37;21.33;;;15.03;;
16254;SDS011;8235;52.198;9.904;2024-03-06T07:43:04;23.13;;;15.13;;
16254;SDS011;8235;52.198;9.904;2024-03-06T07:45:31;22.57;;;15.23;;
16254;SDS011;8235;52.198;9.904;2024-03-06T07:47:59;21.33;;;14.73;;
16254;SDS011;8235;52.198;9.904;2024-03-06T07:50:25;21.03;;;14.50;;
16254;SDS011;8235;52.198;9.904;2024-03-06T07:52:52;22.57;;;14.13;;
16254;SDS011;8235;52.198;9.904;2024-03-06T07:55:19;21.73;;;14.00;;
16254;SDS011;8235;52.198;9.904;2024-03-06T07:57:46;23.23;;;15.20;;
16254;SDS011;8235;52.198;9.904;2024-03-06T08:00:13;21.80;;;15.30;;
16254;SDS011;8235;52.198;9.904;2024-03-06T08:02:40;26.70;;;14.77;;
16254;SDS011;8235;52.198;9.904;2024-03-06T08:05:10;25.67;;;14.57;;
16254;SDS011;8235;52.198;9.904;2024-03-06T08:07:38;23.93;;;14.30;;
16254;SDS011;8235;52.198;9.904;2024-03-06T08:10:07;22.77;;;14.30;;
16254;SDS011;8235;52.198;9.904;2024-03-06T08:12:38;20.93;;;14.07;;
16254;SDS011;8235;52.198;9.904;2024-03-06T08:15:05;24.20;;;14.80;;
16254;SDS011;8235;52.198;9.904;2024-03-06T08:17:34;25.33;;;14.70;;
16254;SDS011;8235;52.198;9.904;2024-03-06T08:20:01;23.30;;;14.77;;
16254;SDS011;8235;52.198;9.904;2024-03-06T08:22:32;22.40;;;14.00;;
16254;SDS011;8235;52.198;9.904;2024-03-06T08:25:03;20.97;;;14.63;;
16254;SDS011;8235;52.198;9.904;2024-03-06T08:27:31;22.30;;;14.73;;
16254;SDS011;8235;52.198;9.904;2024-03-06T08:29:57;18.17;;;12.67;;
16254;SDS011;8235;52.198;9.904;2024-03-06T08:32:24;22.20;;;14.80;;
16254;SDS011;8235;52.198;9.904;2024-03-06T08:34:50;26.43;;;14.60;;
16254;SDS011;8235;52.198;9.904;2024-03-06T08:37:17;25.93;;;15.07;;
16254;SDS011;8235;52.198;9.904;2024-03-06T08:39:45;20.10;;;14.70;;
16254;SDS011;8235;52.198;9.904;2024-03-06T08:42:13;26.00;;;15.47;;
16254;SDS011;8235;52.198;9.904;2024-03-06T08:44:43;21.77;;;15.03;;
16254;SDS011;8235;52.198;9.904;2024-03-06T08:47:09;25.50;;;15.80;;
16254;SDS011;8235;52.198;9.904;2024-03-06T08:49:36;22.53;;;15.43;;
16254;SDS011;8235;52.198;9.904;2024-03-06T08:52:03;28.53;;;16.10;;
16254;SDS011;8235;52.198;9.904;2024-03-06T08:54:30;28.60;;;15.40;;
16254;SDS011;8235;52.198;9.904;2024-03-06T08:56:58;25.73;;;15.93;;
16254;SDS011;8235;52.198;9.904;2024-03-06T08:59:24;24.30;;;16.30;;
16254;SDS011;8235;52.198;9.904;2024-03-06T09:01:51;28.87;;;14.70;;
16254;SDS011;8235;52.198;9.904;2024-03-06T09:04:20;28.77;;;16.50;;
16254;SDS011;8235;52.198;9.904;2024-03-06T09:06:47;27.37;;;16.80;;
16254;SDS011;8235;52.198;9.904;2024-03-06T09:09:14;27.30;;;16.87;;
16254;SDS011;8235;52.198;9.904;2024-03-06T09:11:40;25.40;;;16.33;;
16254;SDS011;8235;52.198;9.904;2024-03-06T09:14:08;27.10;;;15.63;;
16254;SDS011;8235;52.198;9.904;2024-03-06T09:16:35;26.60;;;15.83;;
16254;SDS011;8235;52.198;9.904;2024-03-06T09:19:01;26.67;;;15.17;;
16254;SDS011;8235;52.198;9.904;2024-03-06T09:21:28;28.40;;;16.73;;
16254;SDS011;8235;52.198;9.904;2024-03-06T09:23:54;21.37;;;15.47;;
16254;SDS011;8235;52.198;9.904;2024-03-06T09:26:21;28.97;;;16.67;;
16254;SDS011;8235;52.198;9.904;2024-03-06T09:28:47;31.97;;;16.17;;
16254;SDS011;8235;52.198;9.904;2024-03-06T09:31:16;22.83;;;15.77;;
16254;SDS011;8235;52.198;9.904;2024-03-06T09:33:42;23.20;;;16.03;;
16254;SDS011;8235;52.198;9.904;2024-03-06T09:36:11;25.87;;;16.57;;
16254;SDS011;8235;52.198;9.904;2024-03-06T09:38:39;24.73;;;16.30;;
16254;SDS011;8235;52.198;9.904;2024-03-06T09:41:06;27.47;;;16.23;;
16254;SDS011;8235;52.198;9.904;2024-03-06T09:43:33;28.70;;;17.97;;
16254;SDS011;8235;52.198;9.904;2024-03-06T09:46:00;26.63;;;16.30;;
16254;SDS011;8235;52.198;9.904;2024-03-06T09:48:28;26.30;;;17.03;;
16254;SDS011;8235;52.198;9.904;2024-03-06T09:50:57;25.03;;;16.27;;
16254;SDS011;8235;52.198;9.904;2024-03-06T09:53:27;29.67;;;17.13;;
16254;SDS011;8235;52.198;9.904;2024-03-06T09:55:54;29.30;;;18.47;;
16254;SDS011;8235;52.198;9.904;2024-03-06T09:58:22;26.03;;;16.43;;
16254;SDS011;8235;52.198;9.904;2024-03-06T10:00:49;29.10;;;17.07;;
16254;SDS011;8235;52.198;9.904;2024-03-06T10:03:16;30.77;;;18.20;;
16254;SDS011;8235;52.198;9.904;2024-03-06T10:05:44;27.47;;;17.57;;
16254;SDS011;8235;52.198;9.904;2024-03-06T10:08:11;28.50;;;16.90;;
16254;SDS011;8235;52.198;9.904;2024-03-06T10:10:41;29.50;;;18.20;;
16254;SDS011;8235;52.198;9.904;2024-03-06T10:13:08;27.87;;;17.27;;
16254;SDS011;8235;52.198;9.904;2024-03-06T10:15:34;28.47;;;17.10;;
16254;SDS011;8235;52.198;9.904;2024-03-06T10:18:11;27.60;;;16.17;;
16254;SDS011;8235;52.198;9.904;2024-03-06T10:20:38;26.57;;;16.73;;
16254;SDS011;8235;52.198;9.904;2024-03-06T10:23:08;25.17;;;16.50;;
16254;SDS011;8235;52.198;9.904;2024-03-06T10:25:35;29.07;;;15.97;;
16254;SDS011;8235;52.198;9.904;2024-03-06T10:28:02;22.90;;;14.73;;
16254;SDS011;8235;52.198;9.904;2024-03-06T10:30:30;26.80;;;17.30;;
16254;SDS011;8235;52.198;9.904;2024-03-06T10:32:57;26.40;;;16.83;;
16254;SDS011;8235;52.198;9.904;2024-03-06T10:35:24;27.63;;;15.97;;
16254;SDS011;8235;52.198;9.904;2024-03-06T10:37:51;25.43;;;16.20;;
16254;SDS011;8235;52.198;9.904;2024-03-06T10:40:21;27.37;;;17.03;;
16254;SDS011;8235;52.198;9.904;2024-03-06T10:42:48;23.53;;;15.30;;
16254;SDS011;8235;52.198;9.904;2024-03-06T10:45:16;25.37;;;15.70;;
16254;SDS011;8235;52.198;9.904;2024-03-06T10:47:45;23.93;;;16.30;;
16254;SDS011;8235;52.198;9.904;2024-03-06T10:50:13;24.13;;;17.20;;
16254;SDS011;8235;52.198;9.904;2024-03-06T10:52:41;25.93;;;17.13;;
16254;SDS011;8235;52.198;9.904;2024-03-06T10:55:08;26.40;;;16.00;;
16254;SDS011;8235;52.198;9.904;2024-03-06T10:57:36;25.27;;;15.53;;
16254;SDS011;8235;52.198;9.904;2024-03-06T11:00:03;23.43;;;15.40;;
16254;SDS011;8235;52.198;9.904;2024-03-06T11:02:31;21.97;;;15.07;;
16254;SDS011;8235;52.198;9.904;2024-03-06T11:04:58;23.83;;;15.97;;
16254;SDS011;8235;52.198;9.904;2024-03-06T11:07:30;24.40;;;15.10;;
16254;SDS011;8235;52.198;9.904;2024-03-06T11:09:57;23.87;;;15.30;;
16254;SDS011;8235;52.198;9.904;2024-03-06T11:12:34;22.30;;;14.33;;
16254;SDS011;8235;52.198;9.904;2024-03-06T11:15:08;23.13;;;15.10;;
16254;SDS011;8235;52.198;9.904;2024-03-06T11:17:36;23.37;;;14.13;;
16254;SDS011;8235;52.198;9.904;2024-03-06T11:20:08;21.10;;;12.90;;
16254;SDS011;8235;52.198;9.904;2024-03-06T11:28:30;20.73;;;14.40;;
16254;SDS011;8235;52.198;9.904;2024-03-06T11:30:58;19.73;;;14.57;;
16254;SDS011;8235;52.198;9.904;2024-03-06T11:33:35;22.10;;;14.00;;
16254;SDS011;8235;52.198;9.904;2024-03-06T11:36:16;23.73;;;14.50;;
16254;SDS011;8235;52.198;9.904;2024-03-06T11:38:47;21.83;;;13.73;;
16254;SDS011;8235;52.198;9.904;2024-03-06T11:41:14;23.97;;;13.70;;
16254;SDS011;8235;52.198;9.904;2024-03-06T11:43:45;18.57;;;14.43;;
16254;SDS011;8235;52.198;9.904;2024-03-06T11:46:11;22.57;;;14.77;;
16254;SDS011;8235;52.198;9.904;2024-03-06T11:48:38;22.47;;;14.23;;
16254;SDS011;8235;52.198;9.904;2024-03-06T11:51:05;22.90;;;14.47;;
16254;SDS011;8235;52.198;9.904;2024-03-06T11:53:33;23.33;;;14.70;;
16254;SDS011;8235;52.198;9.904;2024-03-06T11:56:00;20.37;;;14.63;;
16254;SDS011;8235;52.198;9.904;2024-03-06T11:58:26;22.20;;;15.00;;
16254;SDS011;8235;52.198;9.904;2024-03-06T12:00:54;21.73;;;13.50;;
16254;SDS011;8235;52.198;9.904;2024-03-06T12:03:21;17.30;;;12.50;;
16254;SDS011;8235;52.198;9.904;2024-03-06T12:05:50;20.53;;;13.80;;
16254;SDS011;8235;52.198;9.904;2024-03-06T12:08:16;24.47;;;14.50;;
16254;SDS011;8235;52.198;9.904;2024-03-06T12:10:44;22.70;;;15.57;;
16254;SDS011;8235;52.198;9.904;2024-03-06T12:13:12;22.20;;;13.60;;
16254;SDS011;8235;52.198;9.904;2024-03-06T12:15:38;20.43;;;14.07;;
16254;SDS011;8235;52.198;9.904;2024-03-06T12:18:09;22.17;;;13.90;;
16254;SDS011;8235;52.198;9.904;2024-03-06T12:20:39;20.90;;;13.80;;
16254;SDS011;8235;52.198;9.904;2024-03-06T12:23:10;21.77;;;13.30;;
16254;SDS011;8235;52.198;9.904;2024-03-06T12:25:45;20.23;;;14.20;;
16254;SDS011;8235;52.198;9.904;2024-03-06T12:28:11;23.50;;;13.60;;
16254;SDS011;8235;52.198;9.904;2024-03-06T12:30:40;20.03;;;14.50;;
16254;SDS011;8235;52.198;9.904;2024-03-06T12:33:10;20.07;;;14.10;;
16254;SDS011;8235;52.198;9.904;2024-03-06T12:35:42;27.67;;;14.20;;
16254;SDS011;8235;52.198;9.904;2024-03-06T12:38:12;20.60;;;13.33;;
16254;SDS011;8235;52.198;9.904;2024-03-06T12:40:40;20.37;;;14.37;;
16254;SDS011;8235;52.198;9.904;2024-03-06T12:43:06;18.97;;;12.97;;
16254;SDS011;8235;52.198;9.904;2024-03-06T12:45:33;21.70;;;14.43;;
16254;SDS011;8235;52.198;9.904;2024-03-06T12:48:00;21.77;;;13.93;;
16254;SDS011;8235;52.198;9.904;2024-03-06T12:50:29;19.07;;;13.90;;
16254;SDS011;8235;52.198;9.904;2024-03-06T12:52:55;19.27;;;13.70;;
16254;SDS011;8235;52.198;9.904;2024-03-06T12:55:22;24.33;;;14.90;;
16254;SDS011;8235;52.198;9.904;2024-03-06T12:57:48;20.60;;;13.87;;
16254;SDS011;8235;52.198;9.904;2024-03-06T13:00:16;22.60;;;13.87;;
16254;SDS011;8235;52.198;9.904;2024-03-06T13:02:43;20.77;;;14.63;;
16254;SDS011;8235;52.198;9.904;2024-03-06T13:05:11;20.27;;;14.07;;
16254;SDS011;8235;52.198;9.904;2024-03-06T13:07:39;20.93;;;13.90;;
16254;SDS011;8235;52.198;9.904;2024-03-06T13:10:07;19.77;;;14.27;;
16254;SDS011;8235;52.198;9.904;2024-03-06T13:12:35;21.83;;;14.13;;
16254;SDS011;8235;52.198;9.904;2024-03-06T13:15:02;20.63;;;14.00;;
16254;SDS011;8235;52.198;9.904;2024-03-06T13:17:29;21.00;;;14.13;;
16254;SDS011;8235;52.198;9.904;2024-03-06T13:19:55;23.40;;;14.63;;
16254;SDS011;8235;52.198;9.904;2024-03-06T13:22:22;21.07;;;14.00;;
16254;SDS011;8235;52.198;9.904;2024-03-06T13:24:50;21.53;;;14.37;;
16254;SDS011;8235;52.198;9.904;2024-03-06T13:27:17;18.33;;;13.77;;
16254;SDS011;8235;52.198;9.904;2024-03-06T13:29:43;21.07;;;14.80;;
16254;SDS011;8235;52.198;9.904;2024-03-06T13:32:10;22.20;;;15.17;;
16254;SDS011;8235;52.198;9.904;2024-03-06T13:34:36;22.33;;;14.63;;
16254;SDS011;8235;52.198;9.904;2024-03-06T13:37:03;18.97;;;13.97;;
16254;SDS011;8235;52.198;9.904;2024-03-06T13:39:31;22.37;;;14.33;;
16254;SDS011;8235;52.198;9.904;2024-03-06T13:41:59;21.57;;;14.90;;
16254;SDS011;8235;52.198;9.904;2024-03-06T13:44:25;27.47;;;15.13;;
16254;SDS011;8235;52.198;9.904;2024-03-06T13:46:52;26.00;;;14.30;;
16254;SDS011;8235;52.198;9.904;2024-03-06T13:49:34;21.73;;;15.10;;
16254;SDS011;8235;52.198;9.904;2024-03-06T13:52:02;21.17;;;14.53;;
16254;SDS011;8235;52.198;9.904;2024-03-06T13:54:30;25.73;;;15.40;;
16254;SDS011;8235;52.198;9.904;2024-03-06T13:56:56;24.53;;;15.53;;
16254;SDS011;8235;52.198;9.904;2024-03-06T13:59:27;23.73;;;15.53;;
16254;SDS011;8235;52.198;9.904;2024-03-06T14:01:54;21.03;;;14.47;;
16254;SDS011;8235;52.198;9.904;2024-03-06T14:04:21;21.07;;;15.80;;
16254;SDS011;8235;52.198;9.904;2024-03-06T14:06:49;19.13;;;14.63;;
16254;SDS011;8235;52.198;9.904;2024-03-06T14:09:26;24.53;;;16.00;;
16254;SDS011;8235;52.198;9.904;2024-03-06T14:11:56;20.17;;;15.03;;
16254;SDS011;8235;52.198;9.904;2024-03-06T14:14:24;22.53;;;15.47;;
16254;SDS011;8235;52.198;9.904;2024-03-06T14:16:50;25.43;;;15.53;;
16254;SDS011;8235;52.198;9.904;2024-03-06T14:19:19;23.90;;;16.47;;
16254;SDS011;8235;52.198;9.904;2024-03-06T14:21:46;23.60;;;16.20;;
16254;SDS011;8235;52.198;9.904;2024-03-06T14:24:14;21.40;;;15.03;;
16254;SDS011;8235;52.198;9.904;2024-03-06T14:27:32;26.20;;;16.20;;
16254;SDS011;8235;52.198;9.904;2024-03-06T14:30:04;20.93;;;15.53;;
16254;SDS011;8235;52.198;9.904;2024-03-06T14:32:37;20.37;;;14.87;;
16254;SDS011;8235;52.198;9.904;2024-03-06T14:35:06;23.70;;;15.33;;
16254;SDS011;8235;52.198;9.904;2024-03-06T14:37:37;22.23;;;15.27;;
16254;SDS011;8235;52.198;9.904;2024-03-06T14:40:07;23.13;;;15.83;;
16254;SDS011;8235;52.198;9.904;2024-03-06T14:42:46;24.03;;;15.43;;